sensor_id;sensor_type;location;lat;lon;timestamp;P1;durP1;ratioP1;P2;durP2;ratioP2
4317;SDS011;2172;53.576;9.934;2022-07-06T00:02:25;4.57;;;2.10;;
4317;SDS011;2172;53.576;9.934;2022-07-06T00:04:52;5.13;;;2.20;;
4317;SDS011;2172;53.576;9.934;2022-07-06T00:07:20;11.07;;;2.70;;
4317;SDS011;2172;53.576;9.934;2022-07-06T00:09:47;4.40;;;2.53;;
4317;SDS011;2172;53.576;9.934;2022-07-06T00:12:15;4.87;;;2.20;;
4317;SDS011;2172;53.576;9.934;2022-07-06T00:14:43;5.43;;;2.60;;
4317;SDS011;2172;53.576;9.934;2022-07-06T00:17:10;3.50;;;2.23;;
4317;SDS011;2172;53.576;9.934;2022-07-06T00:19:39;6.30;;;2.57;;
4317;SDS011;2172;53.576;9.934;2022-07-06T00:22:07;5.10;;;2.17;;
4317;SDS011;2172;53.576;9.934;2022-07-06T00:24:34;5.10;;;2.53;;
4317;SDS011;2172;53.576;9.934;2022-07-06T00:27:02;5.20;;;2.30;;
4317;SDS011;2172;53.576;9.934;2022-07-06T00:29:30;4.77;;;2.30;;
4317;SDS011;2172;53.576;9.934;2022-07-06T00:31:58;5.47;;;2.00;;
4317;SDS011;2172;53.576;9.934;2022-07-06T00:34:25;2.70;;;2.07;;
4317;SDS011;2172;53.576;9.934;2022-07-06T00:36:55;3.10;;;2.57;;
4317;SDS011;2172;53.576;9.934;2022-07-06T00:39:22;4.93;;;1.93;;
4317;SDS011;2172;53.576;9.934;2022-07-06T00:41:54;4.77;;;2.03;;
4317;SDS011;2172;53.576;9.934;2022-07-06T00:44:22;10.57;;;2.80;;
4317;SDS011;2172;53.576;9.934;2022-07-06T00:46:50;5.20;;;2.33;;
4317;SDS011;2172;53.576;9.934;2022-07-06T00:49:17;8.83;;;2.50;;
4317;SDS011;2172;53.576;9.934;2022-07-06T00:52:04;6.20;;;2.27;;
4317;SDS011;2172;53.576;9.934;2022-07-06T00:54:32;3.60;;;2.10;;
4317;SDS011;2172;53.576;9.934;2022-07-06T00:57:00;7.00;;;1.97;;
4317;SDS011;2172;53.576;9.934;2022-07-06T00:59:28;5.00;;;1.97;;
4317;SDS011;2172;53.576;9.934;2022-07-06T01:01:55;4.90;;;2.43;;
4317;SDS011;2172;53.576;9.934;2022-07-06T01:04:23;3.40;;;2.20;;
4317;SDS011;2172;53.576;9.934;2022-07-06T01:06:51;3.87;;;2.10;;
4317;SDS011;2172;53.576;9.934;2022-07-06T01:09:20;6.50;;;2.10;;
4317;SDS011;2172;53.576;9.934;2022-07-06T01:11:48;2.70;;;1.93;;
4317;SDS011;2172;53.576;9.934;2022-07-06T01:14:16;2.57;;;2.27;;
4317;SDS011;2172;53.576;9.934;2022-07-06T01:16:43;10.33;;;2.17;;
4317;SDS011;2172;53.576;9.934;2022-07-06T01:19:11;4.97;;;1.70;;
4317;SDS011;2172;53.576;9.934;2022-07-06T01:21:40;4.87;;;2.10;;
4317;SDS011;2172;53.576;9.934;2022-07-06T01:24:08;5.27;;;1.90;;
4317;SDS011;2172;53.576;9.934;2022-07-06T01:26:35;5.20;;;2.47;;
4317;SDS011;2172;53.576;9.934;2022-07-06T01:29:03;5.10;;;2.37;;
4317;SDS011;2172;53.576;9.934;2022-07-06T01:31:30;4.40;;;2.60;;
4317;SDS011;2172;53.576;9.934;2022-07-06T01:33:58;5.30;;;2.23;;
4317;SDS011;2172;53.576;9.934;2022-07-06T01:36:26;3.50;;;2.10;;
4317;SDS011;2172;53.576;9.934;2022-07-06T01:38:55;5.33;;;2.23;;
4317;SDS011;2172;53.576;9.934;2022-07-06T01:41:24;4.77;;;2.90;;
4317;SDS011;2172;53.576;9.934;2022-07-06T01:43:52;6.40;;;2.20;;
4317;SDS011;2172;53.576;9.934;2022-07-06T01:46:20;5.63;;;2.27;;
4317;SDS011;2172;53.576;9.934;2022-07-06T01:48:47;4.17;;;2.20;;
4317;SDS011;2172;53.576;9.934;2022-07-06T01:51:15;7.13;;;2.33;;
4317;SDS011;2172;53.576;9.934;2022-07-06T01:53:44;4.93;;;2.20;;
4317;SDS011;2172;53.576;9.934;2022-07-06T01:56:16;5.93;;;3.50;;
4317;SDS011;2172;53.576;9.934;2022-07-06T01:58:46;6.70;;;2.43;;
4317;SDS011;2172;53.576;9.934;2022-07-06T02:01:15;4.00;;;1.97;;
4317;SDS011;2172;53.576;9.934;2022-07-06T02:03:43;6.00;;;2.10;;
4317;SDS011;2172;53.576;9.934;2022-07-06T02:06:11;7.00;;;2.90;;
4317;SDS011;2172;53.576;9.934;2022-07-06T02:08:39;8.17;;;2.80;;
4317;SDS011;2172;53.576;9.934;2022-07-06T02:11:08;4.23;;;2.37;;
4317;SDS011;2172;53.576;9.934;2022-07-06T02:13:39;5.30;;;2.47;;
4317;SDS011;2172;53.576;9.934;2022-07-06T02:16:09;6.70;;;2.20;;
4317;SDS011;2172;53.576;9.934;2022-07-06T02:18:37;3.63;;;2.30;;
4317;SDS011;2172;53.576;9.934;2022-07-06T02:21:05;4.70;;;2.13;;
4317;SDS011;2172;53.576;9.934;2022-07-06T02:23:32;11.73;;;2.50;;
4317;SDS011;2172;53.576;9.934;2022-07-06T02:26:00;7.77;;;2.60;;
4317;SDS011;2172;53.576;9.934;2022-07-06T02:28:29;8.63;;;2.27;;
4317;SDS011;2172;53.576;9.934;2022-07-06T02:30:58;6.80;;;2.43;;
4317;SDS011;2172;53.576;9.934;2022-07-06T02:33:27;5.80;;;2.43;;
4317;SDS011;2172;53.576;9.934;2022-07-06T02:35:55;7.03;;;3.00;;
4317;SDS011;2172;53.576;9.934;2022-07-06T02:38:22;4.40;;;1.90;;
4317;SDS011;2172;53.576;9.934;2022-07-06T02:40:50;10.67;;;2.77;;
4317;SDS011;2172;53.576;9.934;2022-07-06T02:43:18;9.93;;;2.90;;
4317;SDS011;2172;53.576;9.934;2022-07-06T02:45:45;6.77;;;3.03;;
4317;SDS011;2172;53.576;9.934;2022-07-06T02:48:16;4.70;;;2.50;;
4317;SDS011;2172;53.576;9.934;2022-07-06T02:50:48;11.60;;;2.80;;
4317;SDS011;2172;53.576;9.934;2022-07-06T02:53:17;8.00;;;2.93;;
4317;SDS011;2172;53.576;9.934;2022-07-06T02:55:47;6.87;;;3.13;;
4317;SDS011;2172;53.576;9.934;2022-07-06T02:58:15;7.30;;;3.13;;
4317;SDS011;2172;53.576;9.934;2022-07-06T03:00:42;4.20;;;2.73;;
4317;SDS011;2172;53.576;9.934;2022-07-06T03:03:10;9.00;;;2.80;;
4317;SDS011;2172;53.576;9.934;2022-07-06T03:05:39;4.27;;;2.60;;
4317;SDS011;2172;53.576;9.934;2022-07-06T03:08:06;5.70;;;2.73;;
4317;SDS011;2172;53.576;9.934;2022-07-06T03:10:35;5.40;;;3.17;;
4317;SDS011;2172;53.576;9.934;2022-07-06T03:13:03;4.87;;;2.53;;
4317;SDS011;2172;53.576;9.934;2022-07-06T03:15:30;3.73;;;2.27;;
4317;SDS011;2172;53.576;9.934;2022-07-06T03:17:58;4.47;;;2.63;;
4317;SDS011;2172;53.576;9.934;2022-07-06T03:20:25;4.67;;;2.90;;
4317;SDS011;2172;53.576;9.934;2022-07-06T03:22:55;4.10;;;2.70;;
4317;SDS011;2172;53.576;9.934;2022-07-06T03:25:23;7.77;;;3.20;;
4317;SDS011;2172;53.576;9.934;2022-07-06T03:27:52;6.43;;;2.80;;
4317;SDS011;2172;53.576;9.934;2022-07-06T03:30:20;5.10;;;2.50;;
4317;SDS011;2172;53.576;9.934;2022-07-06T03:32:52;6.77;;;2.60;;
4317;SDS011;2172;53.576;9.934;2022-07-06T03:35:22;5.10;;;3.03;;
4317;SDS011;2172;53.576;9.934;2022-07-06T03:37:51;4.60;;;2.80;;
4317;SDS011;2172;53.576;9.934;2022-07-06T03:40:22;7.37;;;2.73;;
4317;SDS011;2172;53.576;9.934;2022-07-06T03:42:51;10.77;;;2.80;;
4317;SDS011;2172;53.576;9.934;2022-07-06T03:45:19;3.63;;;2.67;;
4317;SDS011;2172;53.576;9.934;2022-07-06T03:47:48;5.03;;;2.50;;
4317;SDS011;2172;53.576;9.934;2022-07-06T03:50:15;5.10;;;2.97;;
4317;SDS011;2172;53.576;9.934;2022-07-06T03:52:43;3.90;;;2.47;;
4317;SDS011;2172;53.576;9.934;2022-07-06T03:55:11;8.67;;;2.90;;
4317;SDS011;2172;53.576;9.934;2022-07-06T03:57:45;5.27;;;2.70;;
4317;SDS011;2172;53.576;9.934;2022-07-06T04:00:16;4.63;;;2.70;;
4317;SDS011;2172;53.576;9.934;2022-07-06T04:02:52;5.13;;;2.37;;
4317;SDS011;2172;53.576;9.934;2022-07-06T04:05:24;4.63;;;2.23;;
4317;SDS011;2172;53.576;9.934;2022-07-06T04:07:53;4.30;;;2.40;;
4317;SDS011;2172;53.576;9.934;2022-07-06T04:10:26;7.43;;;1.93;;
4317;SDS011;2172;53.576;9.934;2022-07-06T04:12:57;2.10;;;1.63;;
4317;SDS011;2172;53.576;9.934;2022-07-06T04:15:26;4.00;;;2.03;;
4317;SDS011;2172;53.576;9.934;2022-07-06T04:17:53;8.33;;;2.50;;
4317;SDS011;2172;53.576;9.934;2022-07-06T04:20:26;5.20;;;2.27;;
4317;SDS011;2172;53.576;9.934;2022-07-06T04:22:55;3.30;;;1.80;;
4317;SDS011;2172;53.576;9.934;2022-07-06T04:25:25;6.33;;;1.90;;
4317;SDS011;2172;53.576;9.934;2022-07-06T04:27:56;4.73;;;1.90;;
4317;SDS011;2172;53.576;9.934;2022-07-06T04:30:27;7.60;;;2.70;;
4317;SDS011;2172;53.576;9.934;2022-07-06T04:32:55;5.23;;;2.30;;
4317;SDS011;2172;53.576;9.934;2022-07-06T04:35:25;6.13;;;3.57;;
4317;SDS011;2172;53.576;9.934;2022-07-06T04:37:54;7.50;;;2.30;;
4317;SDS011;2172;53.576;9.934;2022-07-06T04:40:22;6.80;;;2.30;;
4317;SDS011;2172;53.576;9.934;2022-07-06T04:42:54;5.37;;;2.40;;
4317;SDS011;2172;53.576;9.934;2022-07-06T04:45:25;4.33;;;2.23;;
4317;SDS011;2172;53.576;9.934;2022-07-06T04:47:54;8.10;;;2.27;;
4317;SDS011;2172;53.576;9.934;2022-07-06T04:50:22;5.40;;;2.40;;
4317;SDS011;2172;53.576;9.934;2022-07-06T04:52:52;6.17;;;2.10;;
4317;SDS011;2172;53.576;9.934;2022-07-06T04:55:20;6.33;;;2.30;;
4317;SDS011;2172;53.576;9.934;2022-07-06T04:57:47;6.17;;;2.30;;
4317;SDS011;2172;53.576;9.934;2022-07-06T05:00:17;6.33;;;2.30;;
4317;SDS011;2172;53.576;9.934;2022-07-06T05:02:48;5.33;;;2.63;;
4317;SDS011;2172;53.576;9.934;2022-07-06T05:05:18;7.47;;;2.80;;
4317;SDS011;2172;53.576;9.934;2022-07-06T05:07:49;9.33;;;2.63;;
4317;SDS011;2172;53.576;9.934;2022-07-06T05:10:16;4.53;;;2.33;;
4317;SDS011;2172;53.576;9.934;2022-07-06T05:12:48;5.83;;;2.53;;
4317;SDS011;2172;53.576;9.934;2022-07-06T05:15:15;6.97;;;2.60;;
4317;SDS011;2172;53.576;9.934;2022-07-06T05:17:43;4.60;;;2.60;;
4317;SDS011;2172;53.576;9.934;2022-07-06T05:20:14;5.17;;;2.30;;
4317;SDS011;2172;53.576;9.934;2022-07-06T05:22:44;5.93;;;2.37;;
4317;SDS011;2172;53.576;9.934;2022-07-06T05:25:13;7.83;;;2.73;;
4317;SDS011;2172;53.576;9.934;2022-07-06T05:27:42;7.47;;;2.70;;
4317;SDS011;2172;53.576;9.934;2022-07-06T05:30:10;3.67;;;2.57;;
4317;SDS011;2172;53.576;9.934;2022-07-06T05:32:38;4.73;;;2.40;;
4317;SDS011;2172;53.576;9.934;2022-07-06T05:35:07;4.83;;;2.60;;
4317;SDS011;2172;53.576;9.934;2022-07-06T05:37:36;8.93;;;3.60;;
4317;SDS011;2172;53.576;9.934;2022-07-06T05:40:05;3.83;;;2.20;;
4317;SDS011;2172;53.576;9.934;2022-07-06T05:42:33;5.83;;;3.90;;
4317;SDS011;2172;53.576;9.934;2022-07-06T05:45:01;5.90;;;3.40;;
4317;SDS011;2172;53.576;9.934;2022-07-06T05:47:30;6.07;;;3.03;;
4317;SDS011;2172;53.576;9.934;2022-07-06T05:50:16;5.93;;;2.40;;
4317;SDS011;2172;53.576;9.934;2022-07-06T05:53:03;6.47;;;2.60;;
4317;SDS011;2172;53.576;9.934;2022-07-06T05:55:31;10.70;;;3.17;;
4317;SDS011;2172;53.576;9.934;2022-07-06T05:58:00;7.50;;;2.13;;
4317;SDS011;2172;53.576;9.934;2022-07-06T06:00:30;7.60;;;2.37;;
4317;SDS011;2172;53.576;9.934;2022-07-06T06:03:04;6.90;;;2.63;;
4317;SDS011;2172;53.576;9.934;2022-07-06T06:05:31;5.87;;;2.23;;
4317;SDS011;2172;53.576;9.934;2022-07-06T06:08:05;4.23;;;2.17;;
4317;SDS011;2172;53.576;9.934;2022-07-06T06:10:33;3.00;;;1.63;;
4317;SDS011;2172;53.576;9.934;2022-07-06T06:13:05;7.10;;;2.50;;
4317;SDS011;2172;53.576;9.934;2022-07-06T06:15:33;5.60;;;3.07;;
4317;SDS011;2172;53.576;9.934;2022-07-06T06:18:02;5.67;;;2.60;;
4317;SDS011;2172;53.576;9.934;2022-07-06T06:20:30;7.00;;;2.50;;
4317;SDS011;2172;53.576;9.934;2022-07-06T06:22:58;6.13;;;2.57;;
4317;SDS011;2172;53.576;9.934;2022-07-06T06:25:31;4.50;;;2.00;;
4317;SDS011;2172;53.576;9.934;2022-07-06T06:27:59;7.47;;;2.43;;
4317;SDS011;2172;53.576;9.934;2022-07-06T06:30:27;7.80;;;1.70;;
4317;SDS011;2172;53.576;9.934;2022-07-06T06:33:08;4.10;;;1.80;;
4317;SDS011;2172;53.576;9.934;2022-07-06T06:35:37;5.93;;;1.77;;
4317;SDS011;2172;53.576;9.934;2022-07-06T06:38:08;3.53;;;1.70;;
4317;SDS011;2172;53.576;9.934;2022-07-06T06:40:37;6.47;;;1.97;;
4317;SDS011;2172;53.576;9.934;2022-07-06T06:43:04;5.00;;;2.07;;
4317;SDS011;2172;53.576;9.934;2022-07-06T06:45:36;4.90;;;2.00;;
4317;SDS011;2172;53.576;9.934;2022-07-06T06:48:04;7.60;;;2.03;;
4317;SDS011;2172;53.576;9.934;2022-07-06T06:50:31;7.20;;;2.00;;
4317;SDS011;2172;53.576;9.934;2022-07-06T06:52:59;3.97;;;1.90;;
4317;SDS011;2172;53.576;9.934;2022-07-06T06:55:26;6.63;;;2.10;;
4317;SDS011;2172;53.576;9.934;2022-07-06T06:57:57;3.93;;;1.90;;
4317;SDS011;2172;53.576;9.934;2022-07-06T07:00:24;6.80;;;2.77;;
4317;SDS011;2172;53.576;9.934;2022-07-06T07:02:52;4.60;;;2.70;;
4317;SDS011;2172;53.576;9.934;2022-07-06T07:05:19;16.40;;;7.70;;
4317;SDS011;2172;53.576;9.934;2022-07-06T07:07:47;9.53;;;4.20;;
4317;SDS011;2172;53.576;9.934;2022-07-06T07:10:15;7.63;;;2.83;;
4317;SDS011;2172;53.576;9.934;2022-07-06T07:12:43;3.57;;;2.20;;
4317;SDS011;2172;53.576;9.934;2022-07-06T07:15:13;8.00;;;2.70;;
4317;SDS011;2172;53.576;9.934;2022-07-06T07:17:41;4.83;;;1.90;;
4317;SDS011;2172;53.576;9.934;2022-07-06T07:20:09;8.10;;;2.17;;
4317;SDS011;2172;53.576;9.934;2022-07-06T07:22:37;6.30;;;2.57;;
4317;SDS011;2172;53.576;9.934;2022-07-06T07:25:05;6.43;;;2.03;;
4317;SDS011;2172;53.576;9.934;2022-07-06T07:27:33;4.43;;;1.87;;
4317;SDS011;2172;53.576;9.934;2022-07-06T07:30:00;3.50;;;1.50;;
4317;SDS011;2172;53.576;9.934;2022-07-06T07:32:30;7.10;;;2.33;;
4317;SDS011;2172;53.576;9.934;2022-07-06T07:34:58;5.30;;;1.53;;
4317;SDS011;2172;53.576;9.934;2022-07-06T07:37:26;2.70;;;1.40;;
4317;SDS011;2172;53.576;9.934;2022-07-06T07:39:54;3.80;;;1.87;;
4317;SDS011;2172;53.576;9.934;2022-07-06T07:42:21;4.70;;;2.07;;
4317;SDS011;2172;53.576;9.934;2022-07-06T07:44:49;4.97;;;2.00;;
4317;SDS011;2172;53.576;9.934;2022-07-06T07:47:17;7.20;;;4.23;;
4317;SDS011;2172;53.576;9.934;2022-07-06T07:49:46;5.17;;;2.57;;
4317;SDS011;2172;53.576;9.934;2022-07-06T07:52:14;3.20;;;2.00;;
4317;SDS011;2172;53.576;9.934;2022-07-06T07:54:41;2.47;;;1.27;;
4317;SDS011;2172;53.576;9.934;2022-07-06T07:57:09;3.83;;;1.87;;
4317;SDS011;2172;53.576;9.934;2022-07-06T07:59:36;3.40;;;1.80;;
4317;SDS011;2172;53.576;9.934;2022-07-06T08:02:04;3.10;;;1.30;;
4317;SDS011;2172;53.576;9.934;2022-07-06T08:04:32;3.17;;;1.40;;
4317;SDS011;2172;53.576;9.934;2022-07-06T08:07:01;7.23;;;3.83;;
4317;SDS011;2172;53.576;9.934;2022-07-06T08:09:29;3.40;;;2.00;;
4317;SDS011;2172;53.576;9.934;2022-07-06T08:11:56;7.10;;;2.00;;
4317;SDS011;2172;53.576;9.934;2022-07-06T08:14:24;3.53;;;1.90;;
4317;SDS011;2172;53.576;9.934;2022-07-06T08:16:52;5.10;;;1.90;;
4317;SDS011;2172;53.576;9.934;2022-07-06T08:19:19;4.37;;;1.83;;
4317;SDS011;2172;53.576;9.934;2022-07-06T08:21:47;3.67;;;1.80;;
4317;SDS011;2172;53.576;9.934;2022-07-06T08:24:16;5.50;;;2.10;;
4317;SDS011;2172;53.576;9.934;2022-07-06T08:26:45;3.90;;;2.20;;
4317;SDS011;2172;53.576;9.934;2022-07-06T08:29:12;3.77;;;1.90;;
4317;SDS011;2172;53.576;9.934;2022-07-06T08:31:40;2.27;;;1.60;;
4317;SDS011;2172;53.576;9.934;2022-07-06T08:34:07;3.67;;;1.93;;
4317;SDS011;2172;53.576;9.934;2022-07-06T08:36:35;4.33;;;1.50;;
4317;SDS011;2172;53.576;9.934;2022-07-06T08:39:03;5.17;;;1.87;;
4317;SDS011;2172;53.576;9.934;2022-07-06T08:41:32;3.87;;;1.43;;
4317;SDS011;2172;53.576;9.934;2022-07-06T08:44:00;8.50;;;3.27;;
4317;SDS011;2172;53.576;9.934;2022-07-06T08:46:28;8.77;;;4.10;;
4317;SDS011;2172;53.576;9.934;2022-07-06T08:48:56;25.23;;;10.03;;
4317;SDS011;2172;53.576;9.934;2022-07-06T08:51:26;7.27;;;5.60;;
4317;SDS011;2172;53.576;9.934;2022-07-06T08:53:54;4.93;;;2.70;;
4317;SDS011;2172;53.576;9.934;2022-07-06T08:56:22;4.27;;;2.20;;
4317;SDS011;2172;53.576;9.934;2022-07-06T08:58:51;2.77;;;1.67;;
4317;SDS011;2172;53.576;9.934;2022-07-06T09:01:19;8.40;;;4.17;;
4317;SDS011;2172;53.576;9.934;2022-07-06T09:03:47;4.53;;;2.13;;
4317;SDS011;2172;53.576;9.934;2022-07-06T09:06:17;3.30;;;2.17;;
4317;SDS011;2172;53.576;9.934;2022-07-06T09:08:49;4.20;;;2.00;;
4317;SDS011;2172;53.576;9.934;2022-07-06T09:11:21;4.60;;;2.10;;
4317;SDS011;2172;53.576;9.934;2022-07-06T09:13:50;5.50;;;2.80;;
4317;SDS011;2172;53.576;9.934;2022-07-06T09:16:20;3.63;;;2.40;;
4317;SDS011;2172;53.576;9.934;2022-07-06T09:18:52;3.80;;;2.50;;
4317;SDS011;2172;53.576;9.934;2022-07-06T09:21:24;5.97;;;2.47;;
4317;SDS011;2172;53.576;9.934;2022-07-06T09:23:55;3.07;;;2.20;;
4317;SDS011;2172;53.576;9.934;2022-07-06T09:26:24;3.00;;;2.70;;
4317;SDS011;2172;53.576;9.934;2022-07-06T09:28:54;4.80;;;2.37;;
4317;SDS011;2172;53.576;9.934;2022-07-06T09:31:23;5.10;;;2.27;;
4317;SDS011;2172;53.576;9.934;2022-07-06T09:33:54;2.23;;;2.03;;
4317;SDS011;2172;53.576;9.934;2022-07-06T09:36:38;3.50;;;2.43;;
4317;SDS011;2172;53.576;9.934;2022-07-06T09:39:14;5.63;;;3.20;;
4317;SDS011;2172;53.576;9.934;2022-07-06T09:41:49;2.57;;;1.50;;
4317;SDS011;2172;53.576;9.934;2022-07-06T09:44:20;1.80;;;1.23;;
4317;SDS011;2172;53.576;9.934;2022-07-06T09:46:48;3.70;;;1.63;;
4317;SDS011;2172;53.576;9.934;2022-07-06T09:49:19;2.40;;;1.43;;
4317;SDS011;2172;53.576;9.934;2022-07-06T09:51:47;3.10;;;1.10;;
4317;SDS011;2172;53.576;9.934;2022-07-06T09:54:16;3.77;;;1.23;;
4317;SDS011;2172;53.576;9.934;2022-07-06T09:56:44;1.60;;;1.17;;
4317;SDS011;2172;53.576;9.934;2022-07-06T09:59:15;4.07;;;1.67;;
4317;SDS011;2172;53.576;9.934;2022-07-06T10:01:45;2.50;;;1.23;;
4317;SDS011;2172;53.576;9.934;2022-07-06T10:04:13;1.93;;;1.13;;
4317;SDS011;2172;53.576;9.934;2022-07-06T10:06:44;2.60;;;1.30;;
4317;SDS011;2172;53.576;9.934;2022-07-06T10:09:11;2.20;;;1.40;;
4317;SDS011;2172;53.576;9.934;2022-07-06T10:11:42;2.07;;;1.13;;
4317;SDS011;2172;53.576;9.934;2022-07-06T10:14:11;4.50;;;1.37;;
4317;SDS011;2172;53.576;9.934;2022-07-06T10:16:40;6.67;;;1.40;;
4317;SDS011;2172;53.576;9.934;2022-07-06T10:19:09;4.20;;;2.37;;
4317;SDS011;2172;53.576;9.934;2022-07-06T10:21:37;2.70;;;1.30;;
4317;SDS011;2172;53.576;9.934;2022-07-06T10:24:06;4.97;;;2.97;;
4317;SDS011;2172;53.576;9.934;2022-07-06T10:26:35;4.63;;;2.37;;
4317;SDS011;2172;53.576;9.934;2022-07-06T10:29:04;4.93;;;1.40;;
4317;SDS011;2172;53.576;9.934;2022-07-06T10:31:37;3.83;;;1.90;;
4317;SDS011;2172;53.576;9.934;2022-07-06T10:34:07;5.57;;;1.90;;
4317;SDS011;2172;53.576;9.934;2022-07-06T10:36:38;2.10;;;1.47;;
4317;SDS011;2172;53.576;9.934;2022-07-06T10:39:06;3.87;;;1.83;;
4317;SDS011;2172;53.576;9.934;2022-07-06T10:41:51;4.83;;;1.43;;
4317;SDS011;2172;53.576;9.934;2022-07-06T10:44:20;1.97;;;1.30;;
4317;SDS011;2172;53.576;9.934;2022-07-06T10:46:52;3.80;;;1.40;;
4317;SDS011;2172;53.576;9.934;2022-07-06T10:49:22;7.63;;;1.23;;
4317;SDS011;2172;53.576;9.934;2022-07-06T10:51:51;2.23;;;1.27;;
4317;SDS011;2172;53.576;9.934;2022-07-06T10:54:19;3.33;;;1.50;;
4317;SDS011;2172;53.576;9.934;2022-07-06T10:56:47;2.30;;;1.83;;
4317;SDS011;2172;53.576;9.934;2022-07-06T10:59:17;4.10;;;1.83;;
4317;SDS011;2172;53.576;9.934;2022-07-06T11:04:40;4.00;;;1.77;;
4317;SDS011;2172;53.576;9.934;2022-07-06T11:07:10;2.70;;;1.33;;
4317;SDS011;2172;53.576;9.934;2022-07-06T11:09:38;3.33;;;1.53;;
4317;SDS011;2172;53.576;9.934;2022-07-06T11:12:11;3.73;;;1.53;;
4317;SDS011;2172;53.576;9.934;2022-07-06T11:14:42;5.30;;;1.43;;
4317;SDS011;2172;53.576;9.934;2022-07-06T11:17:10;2.73;;;1.20;;
4317;SDS011;2172;53.576;9.934;2022-07-06T11:19:38;3.40;;;1.13;;
4317;SDS011;2172;53.576;9.934;2022-07-06T11:22:17;8.70;;;1.93;;
4317;SDS011;2172;53.576;9.934;2022-07-06T11:24:45;4.77;;;1.40;;
4317;SDS011;2172;53.576;9.934;2022-07-06T11:27:14;6.30;;;1.47;;
4317;SDS011;2172;53.576;9.934;2022-07-06T11:29:41;4.87;;;1.37;;
4317;SDS011;2172;53.576;9.934;2022-07-06T11:32:11;5.67;;;2.83;;
4317;SDS011;2172;53.576;9.934;2022-07-06T11:34:40;5.40;;;1.80;;
4317;SDS011;2172;53.576;9.934;2022-07-06T11:37:11;3.10;;;1.13;;
4317;SDS011;2172;53.576;9.934;2022-07-06T11:39:40;4.27;;;1.50;;
4317;SDS011;2172;53.576;9.934;2022-07-06T11:42:09;2.97;;;1.13;;
4317;SDS011;2172;53.576;9.934;2022-07-06T11:44:38;5.80;;;2.00;;
4317;SDS011;2172;53.576;9.934;2022-07-06T11:47:07;3.90;;;1.60;;
4317;SDS011;2172;53.576;9.934;2022-07-06T11:49:36;3.03;;;1.30;;
4317;SDS011;2172;53.576;9.934;2022-07-06T11:52:05;4.77;;;1.67;;
4317;SDS011;2172;53.576;9.934;2022-07-06T11:54:35;3.87;;;1.17;;
4317;SDS011;2172;53.576;9.934;2022-07-06T11:57:03;5.97;;;1.73;;
4317;SDS011;2172;53.576;9.934;2022-07-06T11:59:34;2.80;;;1.20;;
4317;SDS011;2172;53.576;9.934;2022-07-06T12:02:02;5.20;;;1.53;;
4317;SDS011;2172;53.576;9.934;2022-07-06T12:04:32;2.80;;;1.20;;
4317;SDS011;2172;53.576;9.934;2022-07-06T12:07:00;2.70;;;1.23;;
4317;SDS011;2172;53.576;9.934;2022-07-06T12:09:29;2.03;;;0.90;;
4317;SDS011;2172;53.576;9.934;2022-07-06T12:11:59;6.57;;;1.20;;
4317;SDS011;2172;53.576;9.934;2022-07-06T12:14:30;1.80;;;0.97;;
4317;SDS011;2172;53.576;9.934;2022-07-06T12:17:02;3.20;;;1.00;;
4317;SDS011;2172;53.576;9.934;2022-07-06T12:19:31;2.60;;;1.00;;
4317;SDS011;2172;53.576;9.934;2022-07-06T12:21:58;6.07;;;1.33;;
4317;SDS011;2172;53.576;9.934;2022-07-06T12:24:27;2.73;;;1.40;;
4317;SDS011;2172;53.576;9.934;2022-07-06T12:26:56;6.83;;;1.90;;
4317;SDS011;2172;53.576;9.934;2022-07-06T12:29:28;3.33;;;1.10;;
4317;SDS011;2172;53.576;9.934;2022-07-06T12:31:56;6.63;;;1.10;;
4317;SDS011;2172;53.576;9.934;2022-07-06T12:34:25;3.63;;;0.83;;
4317;SDS011;2172;53.576;9.934;2022-07-06T12:36:56;3.53;;;1.10;;
4317;SDS011;2172;53.576;9.934;2022-07-06T12:39:25;3.03;;;1.13;;
4317;SDS011;2172;53.576;9.934;2022-07-06T12:41:55;6.30;;;2.70;;
4317;SDS011;2172;53.576;9.934;2022-07-06T12:44:25;4.53;;;1.50;;
4317;SDS011;2172;53.576;9.934;2022-07-06T12:47:01;6.03;;;1.70;;
4317;SDS011;2172;53.576;9.934;2022-07-06T12:49:30;3.63;;;0.97;;
4317;SDS011;2172;53.576;9.934;2022-07-06T12:51:59;2.80;;;1.00;;
4317;SDS011;2172;53.576;9.934;2022-07-06T12:54:30;3.33;;;1.10;;
4317;SDS011;2172;53.576;9.934;2022-07-06T12:56:59;3.07;;;1.40;;
4317;SDS011;2172;53.576;9.934;2022-07-06T12:59:30;2.73;;;1.40;;
4317;SDS011;2172;53.576;9.934;2022-07-06T13:18:11;1.70;;;0.70;;
4317;SDS011;2172;53.576;9.934;2022-07-06T13:20:39;4.87;;;1.20;;
4317;SDS011;2172;53.576;9.934;2022-07-06T13:23:06;3.90;;;2.20;;
4317;SDS011;2172;53.576;9.934;2022-07-06T13:25:34;5.37;;;0.90;;
4317;SDS011;2172;53.576;9.934;2022-07-06T13:28:01;6.23;;;1.10;;
4317;SDS011;2172;53.576;9.934;2022-07-06T13:30:29;4.77;;;2.10;;
4317;SDS011;2172;53.576;9.934;2022-07-06T13:32:56;3.43;;;1.47;;
4317;SDS011;2172;53.576;9.934;2022-07-06T13:35:25;3.20;;;1.23;;
4317;SDS011;2172;53.576;9.934;2022-07-06T13:37:52;2.80;;;1.30;;
4317;SDS011;2172;53.576;9.934;2022-07-06T13:40:20;2.30;;;1.00;;
4317;SDS011;2172;53.576;9.934;2022-07-06T13:42:47;2.13;;;1.00;;
4317;SDS011;2172;53.576;9.934;2022-07-06T13:45:15;2.80;;;1.00;;
4317;SDS011;2172;53.576;9.934;2022-07-06T13:47:42;2.20;;;0.90;;
4317;SDS011;2172;53.576;9.934;2022-07-06T13:50:10;3.20;;;0.90;;
4317;SDS011;2172;53.576;9.934;2022-07-06T13:52:39;3.20;;;0.97;;
4317;SDS011;2172;53.576;9.934;2022-07-06T13:55:07;3.50;;;1.70;;
4317;SDS011;2172;53.576;9.934;2022-07-06T13:57:35;1.33;;;0.70;;
4317;SDS011;2172;53.576;9.934;2022-07-06T14:00:03;2.80;;;0.90;;
4317;SDS011;2172;53.576;9.934;2022-07-06T14:02:34;4.73;;;1.10;;
4317;SDS011;2172;53.576;9.934;2022-07-06T14:05:02;1.93;;;0.70;;
4317;SDS011;2172;53.576;9.934;2022-07-06T14:07:30;4.17;;;1.00;;
4317;SDS011;2172;53.576;9.934;2022-07-06T14:09:59;2.07;;;1.17;;
4317;SDS011;2172;53.576;9.934;2022-07-06T14:12:27;5.40;;;1.97;;
4317;SDS011;2172;53.576;9.934;2022-07-06T14:14:55;1.33;;;0.70;;
4317;SDS011;2172;53.576;9.934;2022-07-06T14:17:22;3.20;;;1.03;;
4317;SDS011;2172;53.576;9.934;2022-07-06T14:19:50;10.47;;;1.40;;
4317;SDS011;2172;53.576;9.934;2022-07-06T14:22:17;3.77;;;1.17;;
4317;SDS011;2172;53.576;9.934;2022-07-06T14:24:45;2.37;;;0.87;;
4317;SDS011;2172;53.576;9.934;2022-07-06T14:27:14;1.73;;;0.70;;
4317;SDS011;2172;53.576;9.934;2022-07-06T14:29:41;2.00;;;1.00;;
4317;SDS011;2172;53.576;9.934;2022-07-06T14:32:09;4.80;;;0.93;;
4317;SDS011;2172;53.576;9.934;2022-07-06T14:34:37;1.73;;;0.70;;
4317;SDS011;2172;53.576;9.934;2022-07-06T14:37:04;3.77;;;0.83;;
4317;SDS011;2172;53.576;9.934;2022-07-06T14:39:31;2.90;;;0.93;;
4317;SDS011;2172;53.576;9.934;2022-07-06T14:41:59;3.30;;;1.13;;
4317;SDS011;2172;53.576;9.934;2022-07-06T14:44:28;2.60;;;0.90;;
4317;SDS011;2172;53.576;9.934;2022-07-06T14:46:55;3.90;;;0.80;;
4317;SDS011;2172;53.576;9.934;2022-07-06T14:49:23;3.80;;;0.97;;
4317;SDS011;2172;53.576;9.934;2022-07-06T14:51:50;2.90;;;1.00;;
4317;SDS011;2172;53.576;9.934;2022-07-06T14:54:18;3.70;;;0.90;;
4317;SDS011;2172;53.576;9.934;2022-07-06T14:56:45;1.87;;;0.70;;
4317;SDS011;2172;53.576;9.934;2022-07-06T14:59:13;2.83;;;0.90;;
4317;SDS011;2172;53.576;9.934;2022-07-06T15:01:42;2.27;;;1.00;;
4317;SDS011;2172;53.576;9.934;2022-07-06T15:04:10;2.40;;;1.40;;
4317;SDS011;2172;53.576;9.934;2022-07-06T15:06:37;3.00;;;0.80;;
4317;SDS011;2172;53.576;9.934;2022-07-06T15:09:05;5.63;;;2.90;;
4317;SDS011;2172;53.576;9.934;2022-07-06T15:11:32;1.57;;;0.80;;
4317;SDS011;2172;53.576;9.934;2022-07-06T15:14:00;3.37;;;1.17;;
4317;SDS011;2172;53.576;9.934;2022-07-06T15:16:28;10.33;;;1.00;;
4317;SDS011;2172;53.576;9.934;2022-07-06T15:18:56;3.40;;;0.90;;
4317;SDS011;2172;53.576;9.934;2022-07-06T15:21:24;4.10;;;1.07;;
4317;SDS011;2172;53.576;9.934;2022-07-06T15:23:51;5.93;;;1.00;;
4317;SDS011;2172;53.576;9.934;2022-07-06T15:26:19;1.57;;;1.03;;
4317;SDS011;2172;53.576;9.934;2022-07-06T15:28:46;3.50;;;1.37;;
4317;SDS011;2172;53.576;9.934;2022-07-06T15:31:14;6.67;;;3.33;;
4317;SDS011;2172;53.576;9.934;2022-07-06T15:33:41;5.17;;;1.37;;
4317;SDS011;2172;53.576;9.934;2022-07-06T15:36:10;3.30;;;1.50;;
4317;SDS011;2172;53.576;9.934;2022-07-06T15:38:38;2.50;;;1.57;;
4317;SDS011;2172;53.576;9.934;2022-07-06T15:41:05;4.90;;;1.30;;
4317;SDS011;2172;53.576;9.934;2022-07-06T15:43:33;2.50;;;1.67;;
4317;SDS011;2172;53.576;9.934;2022-07-06T15:46:01;4.30;;;1.20;;